createdAt,value
2023-03-27T00:01:33.574Z,4.00
2023-03-27T00:04:37.371Z,4.25
2023-03-27T00:07:41.773Z,1.50
2023-03-27T00:10:45.351Z,4.00
2023-03-27T00:13:54.488Z,4.00
2023-03-27T00:17:00.350Z,4.00
2023-03-27T00:20:05.520Z,5.50
2023-03-27T00:23:08.803Z,4.00
2023-03-27T00:26:15.345Z,3.00
2023-03-27T00:29:23.613Z,4.50
2023-03-27T00:32:26.991Z,6.00
2023-03-27T00:35:31.551Z,4.00
2023-03-27T00:38:35.196Z,6.00
2023-03-27T00:41:38.986Z,3.00
2023-03-27T00:44:43.963Z,4.00
2023-03-27T00:47:51.481Z,3.25
2023-03-27T00:50:56.728Z,3.00
2023-03-27T00:54:01.966Z,4.00
2023-03-27T00:57:09.634Z,5.75
2023-03-27T01:00:17.197Z,7.00
2023-03-27T01:03:22.465Z,4.00
2023-03-27T01:06:26.979Z,5.50
2023-03-27T01:09:31.176Z,5.25
2023-03-27T01:12:41.562Z,3.00
2023-03-27T01:15:57.088Z,3.25
2023-03-27T01:19:16.675Z,4.00
2023-03-27T01:22:50.499Z,4.00
2023-03-27T01:26:14.286Z,3.75
2023-03-27T01:29:28.248Z,5.50
2023-03-27T01:33:18.686Z,4.00
2023-03-27T01:36:45.128Z,3.00
2023-03-27T01:39:54.990Z,5.00
2023-03-27T01:43:04.684Z,3.50
2023-03-27T01:46:10.828Z,3.75
2023-03-27T01:49:20.191Z,4.00
2023-03-27T01:52:30.287Z,3.00
2023-03-27T01:55:41.748Z,3.00
2023-03-27T01:58:49.645Z,3.00
2023-03-27T02:01:57.677Z,6.00
2023-03-27T02:05:07.014Z,2.00
2023-03-27T02:08:21.586Z,3.50
2023-03-27T02:11:34.650Z,6.25
2023-03-27T02:14:42.770Z,6.00
2023-03-27T02:17:50.913Z,7.00
2023-03-27T02:20:54.703Z,4.50
2023-03-27T02:24:02.902Z,6.50
2023-03-27T02:27:17.582Z,9.00
2023-03-27T02:30:31.362Z,9.75
2023-03-27T02:33:51.507Z,6.50
2023-03-27T02:37:02.570Z,8.00
2023-03-27T02:40:47.658Z,4.00
2023-03-27T02:44:35.792Z,3.75
2023-03-27T02:47:58.214Z,6.00
2023-03-27T02:51:05.799Z,6.00
2023-03-27T02:54:14.091Z,5.50
2023-03-27T02:57:24.869Z,5.50
2023-03-27T03:00:50.585Z,5.50
2023-03-27T03:04:21.161Z,7.00
2023-03-27T03:07:46.591Z,4.50
2023-03-27T03:10:50.820Z,3.00
2023-03-27T03:13:54.245Z,3.75
2023-03-27T03:17:02.273Z,4.00
2023-03-27T03:20:07.927Z,3.50
2023-03-27T03:23:11.387Z,6.50
2023-03-27T03:26:16.859Z,7.00
2023-03-27T03:29:25.207Z,3.50
2023-03-27T03:32:47.413Z,5.00
2023-03-27T03:35:51.891Z,6.25
2023-03-27T03:39:08.147Z,12.25
2023-03-27T03:42:22.905Z,9.00
2023-03-27T03:45:29.329Z,15.00
2023-03-27T03:48:34.394Z,9.50
2023-03-27T03:51:38.434Z,6.50
2023-03-27T03:54:41.939Z,8.00
2023-03-27T03:57:48.571Z,9.00
2023-03-27T04:01:02.955Z,5.75
2023-03-27T04:04:15.601Z,10.50
2023-03-27T04:07:37.220Z,9.00
2023-03-27T04:11:07.080Z,10.00
2023-03-27T04:14:49.112Z,11.50
2023-03-27T04:18:16.602Z,8.00
2023-03-27T04:21:21.545Z,7.00
2023-03-27T04:24:25.766Z,12.25
2023-03-27T04:27:30.712Z,19.00
2023-03-27T04:30:37.687Z,13.50
2023-03-27T04:33:46.965Z,10.00
2023-03-27T04:37:10.594Z,14.75
2023-03-27T04:40:25.567Z,11.00
2023-03-27T04:43:28.955Z,17.50
2023-03-27T04:46:32.527Z,13.50
2023-03-27T04:49:46.726Z,6.00
2023-03-27T04:53:02.179Z,22.75
2023-03-27T04:56:12.991Z,13.25
2023-03-27T04:59:18.601Z,18.50
2023-03-27T05:02:34.621Z,20.50
2023-03-27T05:05:51.168Z,30.00
2023-03-27T05:08:56.396Z,31.75
2023-03-27T05:12:04.276Z,34.67
2023-03-27T05:15:14.773Z,20.00
2023-03-27T05:18:20.661Z,29.00
2023-03-27T05:21:27.251Z,15.50
2023-03-27T05:24:34.213Z,24.25
2023-03-27T05:27:37.804Z,36.33
2023-03-27T05:30:42.438Z,12.00
2023-03-27T05:33:59.815Z,13.00
2023-03-27T05:37:06.943Z,39.00
2023-03-27T05:40:26.290Z,31.00
2023-03-27T05:43:29.712Z,15.00
2023-03-27T05:46:33.356Z,18.50
2023-03-27T05:49:49.538Z,3.25
2023-03-27T05:52:56.727Z,10.25
2023-03-27T05:56:09.904Z,4.50
2023-03-27T05:59:25.300Z,10.75
2023-03-27T06:02:34.328Z,22.50
2023-03-27T06:05:43.347Z,9.25
2023-03-27T06:08:47.042Z,18.50
2023-03-27T06:11:51.832Z,14.00
2023-03-27T06:14:56.548Z,13.00
2023-03-27T06:18:13.539Z,0.00
2023-03-27T06:21:17.416Z,11.00
2023-03-27T06:24:20.877Z,8.50
2023-03-27T06:27:26.942Z,2.00
2023-03-27T06:30:31.419Z,1.75
2023-03-27T06:33:53.567Z,3.25
2023-03-27T06:37:11.992Z,11.25
2023-03-27T06:40:22.843Z,14.50
2023-03-27T06:43:29.204Z,3.00
2023-03-27T06:46:45.798Z,2.50
2023-03-27T06:49:55.271Z,4.50
2023-03-27T06:53:00.996Z,9.50
2023-03-27T06:56:24.223Z,3.50
2023-03-27T06:59:47.680Z,6.00
2023-03-27T07:02:56.653Z,1.00
2023-03-27T07:06:22.430Z,6.00
2023-03-27T07:09:30.711Z,4.00
2023-03-27T07:12:39.103Z,0.25
2023-03-27T07:15:44.334Z,5.25
2023-03-27T07:18:48.002Z,3.00
2023-03-27T07:21:51.429Z,4.50
2023-03-27T07:24:55.005Z,4.00
2023-03-27T07:28:00.490Z,1.00
2023-03-27T07:31:27.621Z,7.50
2023-03-27T07:34:35.107Z,0.75
2023-03-27T07:37:47.816Z,2.50
2023-03-27T07:41:09.675Z,6.67
2023-03-27T07:44:31.523Z,5.75
2023-03-27T07:47:42.872Z,7.50
2023-03-27T07:50:46.504Z,6.00
2023-03-27T07:53:58.602Z,5.50
2023-03-27T07:57:08.291Z,6.00
2023-03-27T08:00:36.342Z,3.33
2023-03-27T08:03:49.679Z,6.00
2023-03-27T08:06:56.352Z,4.67
2023-03-27T08:10:01.220Z,4.67
2023-03-27T08:13:12.728Z,3.67
2023-03-27T08:16:18.515Z,4.00
2023-03-27T08:19:24.208Z,6.67
2023-03-27T08:22:33.519Z,4.00
2023-03-27T08:26:00.627Z,3.67
2023-03-27T08:29:09.099Z,15.67
2023-03-27T08:32:14.056Z,3.67
2023-03-27T08:35:21.325Z,3.00
2023-03-27T08:38:26.922Z,12.33
2023-03-27T08:41:52.186Z,3.00
2023-03-27T08:45:09.437Z,6.33
2023-03-27T08:48:25.924Z,3.00
2023-03-27T08:51:36.163Z,11.33
2023-03-27T08:54:47.316Z,8.67
2023-03-27T08:57:55.848Z,5.33
2023-03-27T09:01:08.874Z,2.33
2023-03-27T09:04:22.128Z,1.00
2023-03-27T09:07:34.719Z,0.00
2023-03-27T09:11:10.543Z,3.00
2023-03-27T09:14:32.455Z,9.33
2023-03-27T09:17:40.669Z,3.33
2023-03-27T09:20:53.687Z,5.33
2023-03-27T09:24:03.361Z,17.67
2023-03-27T09:27:32.648Z,1.00
2023-03-27T09:30:57.445Z,6.00
2023-03-27T09:34:08.295Z,8.33
2023-03-27T09:37:14.550Z,4.00
2023-03-27T09:40:31.524Z,13.00
2023-03-27T09:43:52.535Z,2.33
2023-03-27T09:47:00.293Z,3.25
2023-03-27T09:50:23.157Z,7.67
2023-03-27T09:53:38.864Z,5.33
2023-03-27T09:57:02.554Z,3.67
2023-03-27T10:00:25.199Z,3.75
2023-03-27T10:03:39.173Z,2.50
2023-03-27T10:06:47.548Z,9.00
2023-03-27T10:10:09.229Z,1.00
2023-03-27T10:13:47.166Z,0.75
2023-03-27T10:16:54.538Z,0.00
2023-03-27T10:20:09.538Z,3.00
2023-03-27T10:23:26.226Z,0.00
2023-03-27T10:26:33.830Z,1.00
2023-03-27T10:29:41.093Z,3.75
2023-03-27T10:32:49.556Z,1.00
2023-03-27T10:36:21.620Z,1.00
2023-03-27T10:39:29.773Z,7.00
2023-03-27T10:42:52.032Z,3.00
2023-03-27T10:46:05.211Z,0.00
2023-03-27T10:49:20.584Z,1.00
2023-03-27T10:52:32.761Z,0.00
2023-03-27T10:56:14.089Z,0.00
2023-03-27T10:59:31.176Z,3.00
2023-03-27T11:02:49.838Z,0.25
2023-03-27T11:05:55.469Z,1.00
2023-03-27T11:09:16.353Z,3.00
2023-03-27T11:12:36.364Z,1.50
2023-03-27T11:15:44.412Z,2.00
2023-03-27T11:19:32.373Z,0.50
2023-03-27T11:23:09.730Z,0.75
2023-03-27T11:26:25.720Z,2.00
2023-03-27T11:29:37.197Z,1.00
2023-03-27T11:32:49.829Z,3.75
2023-03-27T11:36:01.048Z,0.75
2023-03-27T11:39:29.150Z,3.00
2023-03-27T11:42:37.469Z,0.25
2023-03-27T11:45:53.795Z,0.00
2023-03-27T11:49:10.913Z,0.00
2023-03-27T11:52:27.393Z,6.00
2023-03-27T11:55:38.799Z,4.00
2023-03-27T11:58:53.430Z,1.00
2023-03-27T12:02:04.009Z,0.75
2023-03-27T12:05:19.501Z,1.00
2023-03-27T12:08:44.719Z,0.00
2023-03-27T12:11:57.609Z,0.00
2023-03-27T12:15:20.060Z,3.00
2023-03-27T12:18:41.353Z,9.75
2023-03-27T12:21:59.023Z,5.00
2023-03-27T12:25:48.013Z,11.50
2023-03-27T12:29:46.689Z,8.00
2023-03-27T12:33:20.908Z,6.75
2023-03-27T12:36:28.573Z,13.25
2023-03-27T12:39:32.345Z,10.25
2023-03-27T12:42:53.106Z,0.00
2023-03-27T12:46:13.916Z,1.00
2023-03-27T12:49:47.580Z,0.75
2023-03-27T12:52:58.740Z,9.50
2023-03-27T12:56:27.427Z,3.00
2023-03-27T12:59:32.649Z,0.00
2023-03-27T13:03:19.679Z,0.50
2023-03-27T13:06:35.826Z,1.00
2023-03-27T13:09:55.577Z,5.00
2023-03-27T13:13:20.144Z,0.50
2023-03-27T13:16:35.994Z,44.00
2023-03-27T13:19:59.621Z,1.00
2023-03-27T13:23:20.380Z,0.00
2023-03-27T13:26:42.489Z,0.00
2023-03-27T13:29:51.511Z,0.00
2023-03-27T13:33:12.605Z,0.00
2023-03-27T13:36:22.920Z,0.00
2023-03-27T13:39:40.497Z,0.00
2023-03-27T13:42:47.724Z,0.00
2023-03-27T13:45:57.910Z,1.00
2023-03-27T13:49:46.051Z,0.00
2023-03-27T13:53:17.834Z,0.50
2023-03-27T13:56:56.204Z,2.50
2023-03-27T14:00:45.394Z,6.75
2023-03-27T14:04:33.997Z,0.00
2023-03-27T14:08:14.347Z,0.50
2023-03-27T14:11:51.690Z,0.00
2023-03-27T14:15:40.753Z,1.00
2023-03-27T14:19:54.968Z,0.00
2023-03-27T14:23:07.546Z,2.50
2023-03-27T14:26:32.056Z,2.00
2023-03-27T14:29:37.620Z,0.00
2023-03-27T14:32:45.238Z,1.00
2023-03-27T14:35:56.141Z,0.50
2023-03-27T14:39:02.728Z,0.00
2023-03-27T14:42:22.995Z,0.00
2023-03-27T14:45:33.252Z,0.00
2023-03-27T14:48:42.651Z,18.50
2023-03-27T14:51:48.943Z,0.00
2023-03-27T14:55:18.228Z,1.00
2023-03-27T14:58:26.917Z,0.00
2023-03-27T15:01:35.337Z,0.00
2023-03-27T15:04:41.376Z,0.25
2023-03-27T15:07:49.157Z,2.00
2023-03-27T15:11:03.457Z,2.50
2023-03-27T15:14:30.195Z,0.75
2023-03-27T15:17:38.864Z,2.00
2023-03-27T15:20:44.611Z,0.00
2023-03-27T15:23:58.929Z,3.00
2023-03-27T15:27:06.852Z,3.00
2023-03-27T15:30:32.120Z,1.50
2023-03-27T15:33:43.098Z,3.00
2023-03-27T15:36:58.275Z,3.00
2023-03-27T15:40:09.943Z,0.00
2023-03-27T15:43:24.831Z,0.00
2023-03-27T15:46:35.193Z,0.00
2023-03-27T15:49:42.002Z,0.00
2023-03-27T15:52:49.943Z,2.00
2023-03-27T15:55:56.095Z,1.50
2023-03-27T15:59:05.367Z,3.00
2023-03-27T16:02:16.481Z,0.00
2023-03-27T16:05:27.452Z,0.00
2023-03-27T16:08:38.973Z,0.00
2023-03-27T16:11:46.080Z,0.00
2023-03-27T16:14:59.385Z,1.00
2023-03-27T16:18:19.732Z,0.75
2023-03-27T16:21:27.807Z,0.00
2023-03-27T16:24:31.721Z,0.00
2023-03-27T16:27:38.390Z,0.25
2023-03-27T16:30:42.661Z,3.50
2023-03-27T16:33:47.474Z,0.25
2023-03-27T16:36:52.652Z,0.00
2023-03-27T16:39:57.026Z,1.75
2023-03-27T16:43:01.414Z,4.50
2023-03-27T16:46:05.381Z,0.00
2023-03-27T16:49:14.722Z,1.00
2023-03-27T16:52:20.401Z,0.00
2023-03-27T16:55:25.227Z,0.00
2023-03-27T16:58:28.720Z,0.00
2023-03-27T17:01:32.516Z,0.00
2023-03-27T17:04:37.731Z,1.00
2023-03-27T17:07:47.084Z,1.00
2023-03-27T17:10:50.815Z,0.50
2023-03-27T17:13:54.861Z,1.00
2023-03-27T17:16:58.356Z,6.25
2023-03-27T17:20:06.366Z,1.00
2023-03-27T17:23:15.768Z,3.25
2023-03-27T17:26:24.029Z,5.25
2023-03-27T17:29:27.626Z,2.33
2023-03-27T17:32:31.484Z,1.50
2023-03-27T17:35:35.285Z,0.00
2023-03-27T17:38:41.661Z,3.00
2023-03-27T17:41:45.182Z,1.00
2023-03-27T17:44:48.645Z,6.25
2023-03-27T17:47:52.838Z,2.00
2023-03-27T17:51:08.234Z,1.00
2023-03-27T17:54:14.473Z,1.00
2023-03-27T17:57:18.143Z,1.00
2023-03-27T18:00:23.693Z,3.67
2023-03-27T18:03:27.851Z,6.33
2023-03-27T18:06:31.659Z,6.67
2023-03-27T18:09:36.869Z,3.33
2023-03-27T18:12:40.384Z,1.00
2023-03-27T18:15:43.969Z,1.00
2023-03-27T18:18:48.032Z,3.00
2023-03-27T18:21:51.701Z,1.00
2023-03-27T18:24:56.428Z,1.00
2023-03-27T18:28:00.168Z,3.00
2023-03-27T18:31:06.211Z,1.00
2023-03-27T18:34:11.056Z,3.33
2023-03-27T18:37:14.818Z,2.33
2023-03-27T18:40:23.523Z,1.00
2023-03-27T18:43:27.377Z,1.67
2023-03-27T18:46:31.365Z,3.00
2023-03-27T18:49:34.820Z,3.67
2023-03-27T18:52:38.505Z,1.00
2023-03-27T18:55:43.333Z,3.00
2023-03-27T18:58:47.342Z,1.00
2023-03-27T19:01:50.765Z,1.00
2023-03-27T19:05:00.160Z,0.00
2023-03-27T19:08:04.134Z,0.00
2023-03-27T19:11:09.951Z,0.00
2023-03-27T19:14:48.902Z,0.00
2023-03-27T19:18:18.821Z,3.00
2023-03-27T19:21:41.284Z,1.00
2023-03-27T19:24:53.346Z,4.67
2023-03-27T19:27:58.142Z,0.67
2023-03-27T19:31:06.055Z,0.00
2023-03-27T19:34:09.688Z,2.33
2023-03-27T19:37:13.243Z,1.67
2023-03-27T19:40:16.829Z,3.67
2023-03-27T19:43:22.210Z,3.00
2023-03-27T19:46:25.737Z,0.67
2023-03-27T19:49:30.904Z,1.00
2023-03-27T19:53:08.940Z,3.00
2023-03-27T19:56:12.889Z,1.00
2023-03-27T19:59:28.231Z,2.33
2023-03-27T20:02:37.512Z,1.67
2023-03-27T20:05:41.445Z,3.00
2023-03-27T20:08:44.854Z,1.00
2023-03-27T20:11:51.282Z,1.00
2023-03-27T20:15:07.559Z,0.67
2023-03-27T20:18:20.050Z,3.00
2023-03-27T20:21:24.713Z,3.00
2023-03-27T20:24:29.043Z,1.00
2023-03-27T20:27:35.940Z,3.67
2023-03-27T20:30:43.499Z,3.00
2023-03-27T20:33:49.229Z,3.00
2023-03-27T20:36:55.002Z,3.00
2023-03-27T20:40:18.932Z,1.00
2023-03-27T20:43:23.634Z,1.00
2023-03-27T20:46:30.590Z,5.33
2023-03-27T20:49:41.278Z,4.00
2023-03-27T20:52:45.916Z,6.33
2023-03-27T20:56:02.756Z,7.67
2023-03-27T20:59:08.806Z,4.00
2023-03-27T21:02:18.540Z,4.67
2023-03-27T21:05:22.355Z,6.67
2023-03-27T21:08:27.740Z,3.33
2023-03-27T21:11:31.529Z,3.33
2023-03-27T21:14:37.118Z,3.67
2023-03-27T21:17:45.748Z,4.00
2023-03-27T21:20:52.083Z,1.67
2023-03-27T21:23:55.752Z,1.00
2023-03-27T21:27:00.266Z,3.00
2023-03-27T21:30:03.732Z,3.00
2023-03-27T21:33:09.585Z,6.00
2023-03-27T21:36:13.952Z,3.67
2023-03-27T21:39:17.416Z,3.00
2023-03-27T21:42:22.157Z,3.67
2023-03-27T21:45:27.067Z,1.00
2023-03-27T21:48:32.865Z,1.00
2023-03-27T21:51:36.321Z,0.00
2023-03-27T21:54:43.505Z,1.00
2023-03-27T21:57:51.998Z,1.00
2023-03-27T22:00:58.032Z,1.00
2023-03-27T22:04:03.209Z,1.00
2023-03-27T22:07:06.852Z,0.00
2023-03-27T22:10:10.843Z,0.00
2023-03-27T22:13:14.349Z,1.00
2023-03-27T22:16:19.074Z,0.00
2023-03-27T22:19:23.951Z,1.00
2023-03-27T22:22:27.538Z,0.00
2023-03-27T22:25:30.979Z,0.00
2023-03-27T22:28:34.503Z,0.00
2023-03-27T22:31:39.027Z,1.67
2023-03-27T22:34:43.992Z,0.67
2023-03-27T22:37:47.467Z,1.00
2023-03-27T22:40:50.894Z,0.00
2023-03-27T22:43:54.380Z,1.00
2023-03-27T22:46:57.831Z,0.33
2023-03-27T22:50:02.806Z,1.00
2023-03-27T22:53:06.463Z,0.33
2023-03-27T22:56:10.880Z,1.00
2023-03-27T22:59:14.705Z,0.00
2023-03-27T23:02:18.354Z,3.00
2023-03-27T23:05:23.674Z,0.67
2023-03-27T23:08:32.721Z,1.67
2023-03-27T23:11:36.480Z,3.00
2023-03-27T23:14:42.523Z,0.67
2023-03-27T23:17:46.360Z,2.33
2023-03-27T23:20:54.838Z,0.00
2023-03-27T23:23:58.514Z,1.00
2023-03-27T23:27:02.799Z,0.67
2023-03-27T23:30:07.916Z,3.33
2023-03-27T23:33:12.524Z,3.00
2023-03-27T23:36:19.229Z,1.00
2023-03-27T23:39:22.817Z,3.00
2023-03-27T23:42:26.292Z,1.67
2023-03-27T23:45:30.072Z,1.00
2023-03-27T23:48:33.526Z,1.00
2023-03-27T23:51:38.343Z,0.33
2023-03-27T23:54:41.672Z,1.00
2023-03-27T23:57:45.055Z,1.00
